sensor_id;sensor_type;location;lat;lon;timestamp;P1;durP1;ratioP1;P2;durP2;ratioP2
57467;SDS011;43311;51.196;7.518;2023-12-20T07:10:13;22.27;;;7.32;;
57467;SDS011;43311;51.196;7.518;2023-12-20T07:12:39;20.65;;;7.90;;
57467;SDS011;43311;51.196;7.518;2023-12-20T07:15:05;25.15;;;8.57;;
57467;SDS011;43311;51.196;7.518;2023-12-20T07:17:32;27.13;;;11.07;;
57467;SDS011;43311;51.196;7.518;2023-12-20T07:19:58;32.95;;;9.55;;
57467;SDS011;43311;51.196;7.518;2023-12-20T07:22:24;24.20;;;9.20;;
57467;SDS011;43311;51.196;7.518;2023-12-20T07:24:49;25.35;;;8.38;;
57467;SDS011;43311;51.196;7.518;2023-12-20T07:27:17;21.38;;;8.32;;
57467;SDS011;43311;51.196;7.518;2023-12-20T07:29:42;22.88;;;8.18;;
57467;SDS011;43311;51.196;7.518;2023-12-20T07:32:08;28.27;;;8.90;;
57467;SDS011;43311;51.196;7.518;2023-12-20T07:34:33;26.60;;;9.10;;
57467;SDS011;43311;51.196;7.518;2023-12-20T07:36:59;16.70;;;7.47;;
57467;SDS011;43311;51.196;7.518;2023-12-20T07:39:24;19.08;;;7.60;;
57467;SDS011;43311;51.196;7.518;2023-12-20T07:41:50;29.48;;;7.25;;
57467;SDS011;43311;51.196;7.518;2023-12-20T07:44:15;18.40;;;7.78;;
57467;SDS011;43311;51.196;7.518;2023-12-20T07:46:41;17.15;;;6.13;;
57467;SDS011;43311;51.196;7.518;2023-12-20T07:49:06;16.85;;;6.68;;
57467;SDS011;43311;51.196;7.518;2023-12-20T07:51:33;16.35;;;5.55;;
57467;SDS011;43311;51.196;7.518;2023-12-20T07:53:59;21.80;;;6.03;;
57467;SDS011;43311;51.196;7.518;2023-12-20T07:56:24;14.63;;;5.25;;
57467;SDS011;43311;51.196;7.518;2023-12-20T07:58:50;19.90;;;6.28;;
57467;SDS011;43311;51.196;7.518;2023-12-20T08:01:15;17.27;;;5.07;;
57467;SDS011;43311;51.196;7.518;2023-12-20T08:03:41;14.20;;;5.00;;
57467;SDS011;43311;51.196;7.518;2023-12-20T08:06:06;20.58;;;5.93;;
57467;SDS011;43311;51.196;7.518;2023-12-20T08:08:32;21.00;;;8.10;;
57467;SDS011;43311;51.196;7.518;2023-12-20T08:10:59;22.42;;;7.30;;
57467;SDS011;43311;51.196;7.518;2023-12-20T08:13:41;18.73;;;5.65;;
57467;SDS011;43311;51.196;7.518;2023-12-20T08:16:07;20.08;;;6.10;;
57467;SDS011;43311;51.196;7.518;2023-12-20T08:18:33;16.75;;;6.70;;
57467;SDS011;43311;51.196;7.518;2023-12-20T08:20:59;17.00;;;6.45;;
57467;SDS011;43311;51.196;7.518;2023-12-20T08:23:45;18.65;;;7.40;;
57467;SDS011;43311;51.196;7.518;2023-12-20T08:26:19;20.23;;;6.50;;
57467;SDS011;43311;51.196;7.518;2023-12-20T08:28:50;9.88;;;5.18;;
57467;SDS011;43311;51.196;7.518;2023-12-20T08:31:17;15.23;;;5.93;;
57467;SDS011;43311;51.196;7.518;2023-12-20T08:33:45;16.63;;;6.55;;
57467;SDS011;43311;51.196;7.518;2023-12-20T08:36:13;16.10;;;5.43;;
57467;SDS011;43311;51.196;7.518;2023-12-20T08:38:44;23.55;;;5.97;;
57467;SDS011;43311;51.196;7.518;2023-12-20T08:41:10;24.42;;;6.38;;
57467;SDS011;43311;51.196;7.518;2023-12-20T08:43:36;16.63;;;5.75;;
57467;SDS011;43311;51.196;7.518;2023-12-20T08:46:04;22.10;;;5.97;;
57467;SDS011;43311;51.196;7.518;2023-12-20T08:48:30;23.23;;;6.32;;
57467;SDS011;43311;51.196;7.518;2023-12-20T08:50:56;19.27;;;5.53;;
57467;SDS011;43311;51.196;7.518;2023-12-20T08:53:28;19.20;;;6.18;;
57467;SDS011;43311;51.196;7.518;2023-12-20T08:56:00;18.93;;;6.10;;
57467;SDS011;43311;51.196;7.518;2023-12-20T08:58:27;18.25;;;6.40;;
57467;SDS011;43311;51.196;7.518;2023-12-20T09:04:16;19.02;;;6.28;;
57467;SDS011;43311;51.196;7.518;2023-12-20T09:06:44;19.88;;;6.40;;
57467;SDS011;43311;51.196;7.518;2023-12-20T09:09:13;18.73;;;6.50;;
57467;SDS011;43311;51.196;7.518;2023-12-20T09:11:40;22.60;;;7.70;;
57467;SDS011;43311;51.196;7.518;2023-12-20T09:14:23;19.48;;;6.43;;
57467;SDS011;43311;51.196;7.518;2023-12-20T09:17:21;17.40;;;6.25;;
57467;SDS011;43311;51.196;7.518;2023-12-20T09:20:03;17.33;;;6.60;;
57467;SDS011;43311;51.196;7.518;2023-12-20T09:22:33;17.58;;;6.80;;
57467;SDS011;43311;51.196;7.518;2023-12-20T09:24:59;21.58;;;6.78;;
57467;SDS011;43311;51.196;7.518;2023-12-20T09:27:27;15.30;;;6.68;;
57467;SDS011;43311;51.196;7.518;2023-12-20T09:29:52;24.20;;;6.80;;
57467;SDS011;43311;51.196;7.518;2023-12-20T09:32:19;21.77;;;7.32;;
57467;SDS011;43311;51.196;7.518;2023-12-20T09:34:55;21.75;;;6.00;;
57467;SDS011;43311;51.196;7.518;2023-12-20T09:37:20;21.23;;;6.95;;
57467;SDS011;43311;51.196;7.518;2023-12-20T09:39:48;23.88;;;7.72;;
57467;SDS011;43311;51.196;7.518;2023-12-20T09:42:15;13.00;;;6.55;;
57467;SDS011;43311;51.196;7.518;2023-12-20T09:44:46;18.10;;;6.80;;
57467;SDS011;43311;51.196;7.518;2023-12-20T09:47:12;22.67;;;7.00;;
57467;SDS011;43311;51.196;7.518;2023-12-20T09:49:43;20.98;;;7.10;;
57467;SDS011;43311;51.196;7.518;2023-12-20T09:52:10;14.82;;;5.75;;
57467;SDS011;43311;51.196;7.518;2023-12-20T09:54:37;23.17;;;6.93;;
57467;SDS011;43311;51.196;7.518;2023-12-20T09:57:03;26.30;;;7.22;;
57467;SDS011;43311;51.196;7.518;2023-12-20T09:59:30;19.10;;;7.18;;
57467;SDS011;43311;51.196;7.518;2023-12-20T10:01:56;26.20;;;7.72;;
57467;SDS011;43311;51.196;7.518;2023-12-20T10:04:22;16.75;;;6.32;;
57467;SDS011;43311;51.196;7.518;2023-12-20T10:06:51;16.52;;;6.28;;
57467;SDS011;43311;51.196;7.518;2023-12-20T10:09:17;15.38;;;5.10;;
57467;SDS011;43311;51.196;7.518;2023-12-20T10:11:44;19.23;;;6.57;;
57467;SDS011;43311;51.196;7.518;2023-12-20T10:14:10;19.40;;;5.85;;
57467;SDS011;43311;51.196;7.518;2023-12-20T10:16:36;28.45;;;8.10;;
57467;SDS011;43311;51.196;7.518;2023-12-20T10:19:04;18.00;;;5.47;;
57467;SDS011;43311;51.196;7.518;2023-12-20T10:21:30;18.33;;;5.27;;
57467;SDS011;43311;51.196;7.518;2023-12-20T10:23:56;14.68;;;5.20;;
57467;SDS011;43311;51.196;7.518;2023-12-20T10:26:26;16.80;;;5.55;;
57467;SDS011;43311;51.196;7.518;2023-12-20T10:31:31;19.35;;;5.07;;
57467;SDS011;43311;51.196;7.518;2023-12-20T10:33:58;17.80;;;4.60;;
57467;SDS011;43311;51.196;7.518;2023-12-20T10:36:32;19.00;;;5.57;;
57467;SDS011;43311;51.196;7.518;2023-12-20T10:38:58;13.48;;;4.88;;
57467;SDS011;43311;51.196;7.518;2023-12-20T10:41:28;25.20;;;6.20;;
57467;SDS011;43311;51.196;7.518;2023-12-20T10:43:56;16.50;;;5.50;;
57467;SDS011;43311;51.196;7.518;2023-12-20T10:46:25;13.65;;;5.18;;
57467;SDS011;43311;51.196;7.518;2023-12-20T10:48:55;18.35;;;5.10;;
57467;SDS011;43311;51.196;7.518;2023-12-20T10:51:21;17.10;;;4.75;;
57467;SDS011;43311;51.196;7.518;2023-12-20T10:53:49;21.05;;;4.90;;
57467;SDS011;43311;51.196;7.518;2023-12-20T10:56:16;13.13;;;4.97;;
57467;SDS011;43311;51.196;7.518;2023-12-20T10:58:49;13.75;;;4.45;;
57467;SDS011;43311;51.196;7.518;2023-12-20T11:01:15;20.33;;;5.15;;
57467;SDS011;43311;51.196;7.518;2023-12-20T11:03:50;12.25;;;5.30;;
57467;SDS011;43311;51.196;7.518;2023-12-20T11:06:40;19.73;;;5.55;;
57467;SDS011;43311;51.196;7.518;2023-12-20T11:14:41;13.32;;;4.80;;
57467;SDS011;43311;51.196;7.518;2023-12-20T11:17:11;19.65;;;6.13;;
57467;SDS011;43311;51.196;7.518;2023-12-20T11:22:26;13.82;;;5.13;;
57467;SDS011;43311;51.196;7.518;2023-12-20T11:24:53;14.77;;;4.80;;
57467;SDS011;43311;51.196;7.518;2023-12-20T11:27:21;13.57;;;4.40;;
57467;SDS011;43311;51.196;7.518;2023-12-20T11:29:53;16.65;;;6.20;;
57467;SDS011;43311;51.196;7.518;2023-12-20T11:34:50;18.63;;;4.45;;
57467;SDS011;43311;51.196;7.518;2023-12-20T11:37:32;16.25;;;5.07;;
57467;SDS011;43311;51.196;7.518;2023-12-20T11:40:02;16.08;;;5.25;;
57467;SDS011;43311;51.196;7.518;2023-12-20T11:42:32;25.50;;;6.28;;
57467;SDS011;43311;51.196;7.518;2023-12-20T11:45:05;15.38;;;5.43;;
57467;SDS011;43311;51.196;7.518;2023-12-20T11:47:43;18.92;;;5.28;;
57467;SDS011;43311;51.196;7.518;2023-12-20T11:50:15;19.33;;;6.43;;
57467;SDS011;43311;51.196;7.518;2023-12-20T11:52:41;10.15;;;4.95;;
57467;SDS011;43311;51.196;7.518;2023-12-20T11:55:06;15.40;;;5.20;;
57467;SDS011;43311;51.196;7.518;2023-12-20T11:57:33;22.98;;;7.82;;
57467;SDS011;43311;51.196;7.518;2023-12-20T11:59:59;15.45;;;6.20;;
57467;SDS011;43311;51.196;7.518;2023-12-20T12:02:25;11.57;;;4.80;;
57467;SDS011;43311;51.196;7.518;2023-12-20T12:04:50;13.60;;;5.20;;
57467;SDS011;43311;51.196;7.518;2023-12-20T12:07:16;15.65;;;5.32;;
57467;SDS011;43311;51.196;7.518;2023-12-20T12:09:42;17.60;;;4.70;;
57467;SDS011;43311;51.196;7.518;2023-12-20T12:12:08;16.58;;;5.47;;
57467;SDS011;43311;51.196;7.518;2023-12-20T12:14:34;14.25;;;3.90;;
57467;SDS011;43311;51.196;7.518;2023-12-20T12:17:02;20.73;;;5.20;;
57467;SDS011;43311;51.196;7.518;2023-12-20T12:19:29;12.07;;;4.68;;
57467;SDS011;43311;51.196;7.518;2023-12-20T12:22:06;13.35;;;4.97;;
57467;SDS011;43311;51.196;7.518;2023-12-20T12:24:43;12.57;;;5.38;;
57467;SDS011;43311;51.196;7.518;2023-12-20T12:27:09;14.52;;;5.25;;
57467;SDS011;43311;51.196;7.518;2023-12-20T12:29:40;21.60;;;7.95;;
57467;SDS011;43311;51.196;7.518;2023-12-20T12:32:14;11.52;;;4.80;;
57467;SDS011;43311;51.196;7.518;2023-12-20T12:34:43;16.42;;;5.80;;
57467;SDS011;43311;51.196;7.518;2023-12-20T12:37:09;22.25;;;5.95;;
57467;SDS011;43311;51.196;7.518;2023-12-20T12:39:35;17.23;;;5.13;;
57467;SDS011;43311;51.196;7.518;2023-12-20T12:42:06;10.05;;;5.28;;
57467;SDS011;43311;51.196;7.518;2023-12-20T12:44:34;14.40;;;5.25;;
57467;SDS011;43311;51.196;7.518;2023-12-20T12:47:03;20.75;;;5.32;;
57467;SDS011;43311;51.196;7.518;2023-12-20T12:49:43;12.15;;;5.13;;
57467;SDS011;43311;51.196;7.518;2023-12-20T12:52:20;13.85;;;4.47;;
57467;SDS011;43311;51.196;7.518;2023-12-20T12:54:45;11.88;;;5.32;;
57467;SDS011;43311;51.196;7.518;2023-12-20T12:57:12;12.85;;;5.18;;
57467;SDS011;43311;51.196;7.518;2023-12-20T12:59:38;11.80;;;4.78;;
57467;SDS011;43311;51.196;7.518;2023-12-20T13:02:04;10.90;;;4.30;;
57467;SDS011;43311;51.196;7.518;2023-12-20T13:04:29;13.40;;;5.25;;
57467;SDS011;43311;51.196;7.518;2023-12-20T13:06:55;12.73;;;4.50;;
57467;SDS011;43311;51.196;7.518;2023-12-20T13:09:22;13.65;;;4.55;;
57467;SDS011;43311;51.196;7.518;2023-12-20T13:11:48;13.23;;;4.65;;
57467;SDS011;43311;51.196;7.518;2023-12-20T13:14:13;12.45;;;4.65;;
57467;SDS011;43311;51.196;7.518;2023-12-20T13:16:43;10.90;;;4.55;;
57467;SDS011;43311;51.196;7.518;2023-12-20T13:19:10;7.90;;;4.65;;
57467;SDS011;43311;51.196;7.518;2023-12-20T13:21:36;11.82;;;5.00;;
57467;SDS011;43311;51.196;7.518;2023-12-20T13:24:02;16.55;;;5.05;;
57467;SDS011;43311;51.196;7.518;2023-12-20T13:26:28;18.30;;;5.45;;
57467;SDS011;43311;51.196;7.518;2023-12-20T13:28:54;11.23;;;4.85;;
57467;SDS011;43311;51.196;7.518;2023-12-20T13:31:20;14.02;;;5.28;;
57467;SDS011;43311;51.196;7.518;2023-12-20T13:33:45;15.90;;;5.30;;
57467;SDS011;43311;51.196;7.518;2023-12-20T13:36:11;14.32;;;5.45;;
57467;SDS011;43311;51.196;7.518;2023-12-20T13:38:37;13.10;;;4.57;;
57467;SDS011;43311;51.196;7.518;2023-12-20T13:41:03;16.63;;;6.60;;
57467;SDS011;43311;51.196;7.518;2023-12-20T13:43:30;13.35;;;5.63;;
57467;SDS011;43311;51.196;7.518;2023-12-20T13:45:58;8.60;;;4.70;;
57467;SDS011;43311;51.196;7.518;2023-12-20T13:48:24;13.68;;;5.30;;
57467;SDS011;43311;51.196;7.518;2023-12-20T13:50:49;13.68;;;4.95;;
57467;SDS011;43311;51.196;7.518;2023-12-20T13:53:15;10.45;;;4.63;;
57467;SDS011;43311;51.196;7.518;2023-12-20T13:55:50;13.88;;;5.95;;
57467;SDS011;43311;51.196;7.518;2023-12-20T13:58:16;11.43;;;4.90;;
57467;SDS011;43311;51.196;7.518;2023-12-20T14:00:45;13.77;;;5.43;;
57467;SDS011;43311;51.196;7.518;2023-12-20T14:03:11;8.82;;;5.40;;
57467;SDS011;43311;51.196;7.518;2023-12-20T14:05:41;16.00;;;5.75;;
57467;SDS011;43311;51.196;7.518;2023-12-20T14:08:09;13.68;;;6.63;;
57467;SDS011;43311;51.196;7.518;2023-12-20T14:10:35;15.77;;;6.07;;
57467;SDS011;43311;51.196;7.518;2023-12-20T14:13:03;13.85;;;6.53;;
57467;SDS011;43311;51.196;7.518;2023-12-20T14:15:30;13.55;;;6.25;;
57467;SDS011;43311;51.196;7.518;2023-12-20T14:18:01;16.13;;;6.80;;
57467;SDS011;43311;51.196;7.518;2023-12-20T14:20:26;16.33;;;6.47;;
57467;SDS011;43311;51.196;7.518;2023-12-20T14:22:52;17.50;;;7.90;;
57467;SDS011;43311;51.196;7.518;2023-12-20T14:25:20;18.20;;;7.20;;
57467;SDS011;43311;51.196;7.518;2023-12-20T14:27:45;12.83;;;6.57;;
57467;SDS011;43311;51.196;7.518;2023-12-20T14:30:12;14.38;;;6.50;;
57467;SDS011;43311;51.196;7.518;2023-12-20T14:32:39;12.35;;;5.32;;
57467;SDS011;43311;51.196;7.518;2023-12-20T14:35:05;9.35;;;4.90;;
57467;SDS011;43311;51.196;7.518;2023-12-20T14:37:31;14.93;;;5.03;;
57467;SDS011;43311;51.196;7.518;2023-12-20T14:39:57;9.88;;;4.40;;
57467;SDS011;43311;51.196;7.518;2023-12-20T14:42:22;11.60;;;4.82;;
57467;SDS011;43311;51.196;7.518;2023-12-20T14:44:48;12.65;;;4.90;;
57467;SDS011;43311;51.196;7.518;2023-12-20T14:47:13;16.48;;;5.32;;
57467;SDS011;43311;51.196;7.518;2023-12-20T14:49:40;12.85;;;5.50;;
57467;SDS011;43311;51.196;7.518;2023-12-20T14:52:07;13.10;;;4.97;;
57467;SDS011;43311;51.196;7.518;2023-12-20T14:54:36;8.95;;;5.10;;
57467;SDS011;43311;51.196;7.518;2023-12-20T14:57:02;13.27;;;6.30;;
57467;SDS011;43311;51.196;7.518;2023-12-20T14:59:28;18.15;;;6.03;;
57467;SDS011;43311;51.196;7.518;2023-12-20T15:01:53;11.95;;;5.55;;
57467;SDS011;43311;51.196;7.518;2023-12-20T15:04:20;14.52;;;6.47;;
57467;SDS011;43311;51.196;7.518;2023-12-20T15:06:51;21.05;;;8.27;;
57467;SDS011;43311;51.196;7.518;2023-12-20T15:09:17;15.30;;;7.50;;
57467;SDS011;43311;51.196;7.518;2023-12-20T15:11:42;15.50;;;6.47;;
57467;SDS011;43311;51.196;7.518;2023-12-20T15:14:08;18.70;;;7.38;;
57467;SDS011;43311;51.196;7.518;2023-12-20T15:16:34;15.13;;;7.05;;
57467;SDS011;43311;51.196;7.518;2023-12-20T15:19:00;18.65;;;7.82;;
57467;SDS011;43311;51.196;7.518;2023-12-20T15:21:26;19.25;;;8.20;;
57467;SDS011;43311;51.196;7.518;2023-12-20T15:23:57;18.67;;;7.97;;
57467;SDS011;43311;51.196;7.518;2023-12-20T15:26:33;16.15;;;7.25;;
57467;SDS011;43311;51.196;7.518;2023-12-20T15:28:59;20.05;;;8.25;;
57467;SDS011;43311;51.196;7.518;2023-12-20T15:31:28;18.38;;;8.07;;
57467;SDS011;43311;51.196;7.518;2023-12-20T15:33:54;22.35;;;8.75;;
57467;SDS011;43311;51.196;7.518;2023-12-20T15:36:20;18.75;;;7.97;;
57467;SDS011;43311;51.196;7.518;2023-12-20T15:38:45;20.75;;;8.88;;
57467;SDS011;43311;51.196;7.518;2023-12-20T15:41:21;19.45;;;9.25;;
57467;SDS011;43311;51.196;7.518;2023-12-20T15:43:49;20.08;;;8.48;;
57467;SDS011;43311;51.196;7.518;2023-12-20T15:46:14;20.50;;;9.65;;
57467;SDS011;43311;51.196;7.518;2023-12-20T15:48:40;24.40;;;9.57;;
57467;SDS011;43311;51.196;7.518;2023-12-20T15:51:09;23.38;;;9.40;;
57467;SDS011;43311;51.196;7.518;2023-12-20T15:53:35;26.83;;;11.45;;
57467;SDS011;43311;51.196;7.518;2023-12-20T15:56:02;27.77;;;9.93;;
57467;SDS011;43311;51.196;7.518;2023-12-20T15:58:31;26.30;;;9.88;;
57467;SDS011;43311;51.196;7.518;2023-12-20T16:00:56;25.70;;;10.80;;
57467;SDS011;43311;51.196;7.518;2023-12-20T16:03:22;21.55;;;10.02;;
57467;SDS011;43311;51.196;7.518;2023-12-20T16:05:47;25.95;;;11.02;;
57467;SDS011;43311;51.196;7.518;2023-12-20T16:08:13;32.70;;;10.80;;
57467;SDS011;43311;51.196;7.518;2023-12-20T16:10:39;23.58;;;9.90;;
57467;SDS011;43311;51.196;7.518;2023-12-20T16:13:05;22.83;;;9.52;;
57467;SDS011;43311;51.196;7.518;2023-12-20T16:15:31;23.10;;;9.73;;
57467;SDS011;43311;51.196;7.518;2023-12-20T16:17:56;23.95;;;10.35;;
57467;SDS011;43311;51.196;7.518;2023-12-20T16:20:22;18.90;;;9.52;;
57467;SDS011;43311;51.196;7.518;2023-12-20T16:22:48;20.08;;;9.88;;
57467;SDS011;43311;51.196;7.518;2023-12-20T16:25:13;23.85;;;10.63;;
57467;SDS011;43311;51.196;7.518;2023-12-20T16:27:39;27.23;;;10.77;;
57467;SDS011;43311;51.196;7.518;2023-12-20T16:30:05;24.75;;;9.10;;
57467;SDS011;43311;51.196;7.518;2023-12-20T16:32:31;20.50;;;9.40;;
57467;SDS011;43311;51.196;7.518;2023-12-20T16:34:57;26.15;;;10.52;;
57467;SDS011;43311;51.196;7.518;2023-12-20T16:37:23;25.75;;;9.45;;
57467;SDS011;43311;51.196;7.518;2023-12-20T16:39:49;27.42;;;11.50;;
57467;SDS011;43311;51.196;7.518;2023-12-20T16:42:14;23.25;;;9.35;;
57467;SDS011;43311;51.196;7.518;2023-12-20T16:44:40;22.92;;;8.60;;
57467;SDS011;43311;51.196;7.518;2023-12-20T16:47:05;22.77;;;9.60;;
57467;SDS011;43311;51.196;7.518;2023-12-20T16:49:31;21.08;;;7.85;;
57467;SDS011;43311;51.196;7.518;2023-12-20T16:51:56;27.75;;;10.13;;
57467;SDS011;43311;51.196;7.518;2023-12-20T16:54:22;22.52;;;10.10;;
57467;SDS011;43311;51.196;7.518;2023-12-20T16:56:47;28.15;;;8.93;;
57467;SDS011;43311;51.196;7.518;2023-12-20T16:59:13;23.80;;;9.07;;
57467;SDS011;43311;51.196;7.518;2023-12-20T17:01:38;20.55;;;9.00;;
57467;SDS011;43311;51.196;7.518;2023-12-20T17:04:08;20.60;;;8.70;;
57467;SDS011;43311;51.196;7.518;2023-12-20T17:06:33;25.95;;;10.05;;
57467;SDS011;43311;51.196;7.518;2023-12-20T17:08:59;20.98;;;10.13;;
57467;SDS011;43311;51.196;7.518;2023-12-20T17:11:24;29.73;;;9.50;;
57467;SDS011;43311;51.196;7.518;2023-12-20T17:13:50;28.00;;;9.02;;
57467;SDS011;43311;51.196;7.518;2023-12-20T17:16:15;23.52;;;9.30;;
57467;SDS011;43311;51.196;7.518;2023-12-20T17:18:41;25.30;;;9.43;;
57467;SDS011;43311;51.196;7.518;2023-12-20T17:21:06;23.67;;;8.20;;
57467;SDS011;43311;51.196;7.518;2023-12-20T17:23:33;23.08;;;8.65;;
57467;SDS011;43311;51.196;7.518;2023-12-20T17:25:58;20.63;;;7.60;;
57467;SDS011;43311;51.196;7.518;2023-12-20T17:28:24;21.90;;;7.78;;
57467;SDS011;43311;51.196;7.518;2023-12-20T17:30:49;15.60;;;7.32;;
57467;SDS011;43311;51.196;7.518;2023-12-20T17:33:15;17.40;;;8.50;;
57467;SDS011;43311;51.196;7.518;2023-12-20T17:35:41;21.40;;;7.97;;
57467;SDS011;43311;51.196;7.518;2023-12-20T17:38:06;18.55;;;7.25;;
57467;SDS011;43311;51.196;7.518;2023-12-20T17:40:32;17.15;;;7.50;;
57467;SDS011;43311;51.196;7.518;2023-12-20T17:42:57;15.93;;;7.18;;
57467;SDS011;43311;51.196;7.518;2023-12-20T17:45:23;22.20;;;7.80;;
57467;SDS011;43311;51.196;7.518;2023-12-20T17:47:48;13.02;;;6.88;;
57467;SDS011;43311;51.196;7.518;2023-12-20T17:50:14;21.95;;;8.38;;
57467;SDS011;43311;51.196;7.518;2023-12-20T17:52:40;18.30;;;7.53;;
57467;SDS011;43311;51.196;7.518;2023-12-20T17:55:06;22.52;;;9.05;;
57467;SDS011;43311;51.196;7.518;2023-12-20T17:57:31;18.45;;;8.00;;
57467;SDS011;43311;51.196;7.518;2023-12-20T18:00:09;21.48;;;7.78;;
57467;SDS011;43311;51.196;7.518;2023-12-20T18:02:37;23.55;;;8.88;;
57467;SDS011;43311;51.196;7.518;2023-12-20T18:05:02;27.40;;;8.75;;
57467;SDS011;43311;51.196;7.518;2023-12-20T18:07:28;22.33;;;8.55;;
57467;SDS011;43311;51.196;7.518;2023-12-20T18:09:56;24.70;;;9.23;;
57467;SDS011;43311;51.196;7.518;2023-12-20T18:12:22;24.17;;;8.98;;
57467;SDS011;43311;51.196;7.518;2023-12-20T18:14:47;17.65;;;8.73;;
57467;SDS011;43311;51.196;7.518;2023-12-20T18:17:13;21.98;;;9.32;;
57467;SDS011;43311;51.196;7.518;2023-12-20T18:19:39;31.88;;;10.05;;
57467;SDS011;43311;51.196;7.518;2023-12-20T18:22:04;24.05;;;9.52;;
57467;SDS011;43311;51.196;7.518;2023-12-20T18:24:30;24.50;;;10.10;;
57467;SDS011;43311;51.196;7.518;2023-12-20T18:26:55;19.48;;;9.32;;
57467;SDS011;43311;51.196;7.518;2023-12-20T18:29:21;21.42;;;10.18;;
57467;SDS011;43311;51.196;7.518;2023-12-20T18:31:46;25.17;;;9.63;;
57467;SDS011;43311;51.196;7.518;2023-12-20T18:34:12;21.88;;;10.15;;
57467;SDS011;43311;51.196;7.518;2023-12-20T18:36:37;26.30;;;9.90;;
57467;SDS011;43311;51.196;7.518;2023-12-20T18:39:03;17.17;;;10.30;;
57467;SDS011;43311;51.196;7.518;2023-12-20T18:41:29;24.60;;;10.27;;
57467;SDS011;43311;51.196;7.518;2023-12-20T18:43:55;20.05;;;9.63;;
57467;SDS011;43311;51.196;7.518;2023-12-20T18:46:20;27.10;;;10.48;;
57467;SDS011;43311;51.196;7.518;2023-12-20T18:48:47;19.50;;;9.57;;
57467;SDS011;43311;51.196;7.518;2023-12-20T18:51:13;27.73;;;9.45;;
57467;SDS011;43311;51.196;7.518;2023-12-20T18:53:38;24.83;;;10.23;;
57467;SDS011;43311;51.196;7.518;2023-12-20T18:56:04;28.17;;;10.82;;
57467;SDS011;43311;51.196;7.518;2023-12-20T18:58:29;22.80;;;10.07;;
57467;SDS011;43311;51.196;7.518;2023-12-20T19:00:56;17.95;;;9.48;;
57467;SDS011;43311;51.196;7.518;2023-12-20T19:03:23;19.83;;;9.30;;
57467;SDS011;43311;51.196;7.518;2023-12-20T19:05:48;21.15;;;11.52;;
57467;SDS011;43311;51.196;7.518;2023-12-20T19:08:14;24.70;;;10.00;;
57467;SDS011;43311;51.196;7.518;2023-12-20T19:10:39;26.70;;;10.18;;
57467;SDS011;43311;51.196;7.518;2023-12-20T19:13:04;24.42;;;10.35;;
57467;SDS011;43311;51.196;7.518;2023-12-20T19:15:30;24.58;;;10.93;;
57467;SDS011;43311;51.196;7.518;2023-12-20T19:17:56;20.50;;;9.35;;
57467;SDS011;43311;51.196;7.518;2023-12-20T19:20:22;26.83;;;11.07;;
57467;SDS011;43311;51.196;7.518;2023-12-20T19:22:47;19.02;;;10.35;;
57467;SDS011;43311;51.196;7.518;2023-12-20T19:25:13;27.90;;;10.20;;
57467;SDS011;43311;51.196;7.518;2023-12-20T19:27:39;23.75;;;10.07;;
57467;SDS011;43311;51.196;7.518;2023-12-20T19:30:04;26.90;;;11.10;;
57467;SDS011;43311;51.196;7.518;2023-12-20T19:32:30;23.77;;;10.48;;
57467;SDS011;43311;51.196;7.518;2023-12-20T19:34:56;22.88;;;10.00;;
57467;SDS011;43311;51.196;7.518;2023-12-20T19:37:22;26.35;;;10.85;;
57467;SDS011;43311;51.196;7.518;2023-12-20T19:39:49;23.88;;;9.27;;
57467;SDS011;43311;51.196;7.518;2023-12-20T19:42:18;25.73;;;10.13;;
57467;SDS011;43311;51.196;7.518;2023-12-20T19:44:43;25.05;;;10.13;;
57467;SDS011;43311;51.196;7.518;2023-12-20T19:47:09;22.48;;;10.82;;
57467;SDS011;43311;51.196;7.518;2023-12-20T19:49:34;22.20;;;9.07;;
57467;SDS011;43311;51.196;7.518;2023-12-20T19:52:00;20.38;;;8.82;;
57467;SDS011;43311;51.196;7.518;2023-12-20T19:54:27;20.35;;;9.35;;
57467;SDS011;43311;51.196;7.518;2023-12-20T19:57:02;17.20;;;8.70;;
57467;SDS011;43311;51.196;7.518;2023-12-20T19:59:33;22.65;;;9.20;;
57467;SDS011;43311;51.196;7.518;2023-12-20T20:01:59;21.90;;;10.02;;
57467;SDS011;43311;51.196;7.518;2023-12-20T20:04:25;21.15;;;9.45;;
57467;SDS011;43311;51.196;7.518;2023-12-20T20:06:50;28.55;;;11.15;;
57467;SDS011;43311;51.196;7.518;2023-12-20T20:09:18;22.45;;;10.25;;
57467;SDS011;43311;51.196;7.518;2023-12-20T20:11:44;24.10;;;9.93;;
57467;SDS011;43311;51.196;7.518;2023-12-20T20:14:09;18.02;;;10.20;;
57467;SDS011;43311;51.196;7.518;2023-12-20T20:16:37;19.38;;;9.30;;
57467;SDS011;43311;51.196;7.518;2023-12-20T20:19:23;20.52;;;11.07;;
57467;SDS011;43311;51.196;7.518;2023-12-20T20:21:52;17.98;;;9.38;;
57467;SDS011;43311;51.196;7.518;2023-12-20T20:24:17;18.23;;;8.32;;
57467;SDS011;43311;51.196;7.518;2023-12-20T20:26:42;18.17;;;9.20;;
57467;SDS011;43311;51.196;7.518;2023-12-20T20:29:08;14.55;;;8.27;;
57467;SDS011;43311;51.196;7.518;2023-12-20T20:31:33;15.38;;;7.28;;
57467;SDS011;43311;51.196;7.518;2023-12-20T20:34:00;15.25;;;7.68;;
57467;SDS011;43311;51.196;7.518;2023-12-20T20:36:25;14.68;;;7.35;;
57467;SDS011;43311;51.196;7.518;2023-12-20T20:38:51;10.80;;;6.15;;
57467;SDS011;43311;51.196;7.518;2023-12-20T20:41:16;14.75;;;6.85;;
57467;SDS011;43311;51.196;7.518;2023-12-20T20:43:46;12.20;;;7.18;;
57467;SDS011;43311;51.196;7.518;2023-12-20T20:46:12;12.57;;;7.18;;
57467;SDS011;43311;51.196;7.518;2023-12-20T20:48:39;12.57;;;6.68;;
57467;SDS011;43311;51.196;7.518;2023-12-20T20:51:05;13.55;;;6.78;;
57467;SDS011;43311;51.196;7.518;2023-12-20T20:53:36;11.45;;;6.32;;
57467;SDS011;43311;51.196;7.518;2023-12-20T20:56:02;11.55;;;7.20;;
57467;SDS011;43311;51.196;7.518;2023-12-20T20:58:29;13.30;;;7.00;;
57467;SDS011;43311;51.196;7.518;2023-12-20T21:00:56;12.35;;;7.20;;
57467;SDS011;43311;51.196;7.518;2023-12-20T21:03:21;20.05;;;8.55;;
57467;SDS011;43311;51.196;7.518;2023-12-20T21:05:47;15.65;;;8.45;;
57467;SDS011;43311;51.196;7.518;2023-12-20T21:08:13;15.05;;;7.25;;
57467;SDS011;43311;51.196;7.518;2023-12-20T21:10:39;12.30;;;7.20;;
57467;SDS011;43311;51.196;7.518;2023-12-20T21:13:04;12.95;;;6.95;;
57467;SDS011;43311;51.196;7.518;2023-12-20T21:15:30;13.55;;;7.25;;
57467;SDS011;43311;51.196;7.518;2023-12-20T21:18:07;10.75;;;6.40;;
57467;SDS011;43311;51.196;7.518;2023-12-20T21:20:34;10.85;;;6.20;;
57467;SDS011;43311;51.196;7.518;2023-12-20T21:23:00;16.08;;;6.75;;
57467;SDS011;43311;51.196;7.518;2023-12-20T21:25:28;8.95;;;5.53;;
57467;SDS011;43311;51.196;7.518;2023-12-20T21:30:31;9.82;;;5.45;;
57467;SDS011;43311;51.196;7.518;2023-12-20T21:33:00;7.95;;;3.92;;
57467;SDS011;43311;51.196;7.518;2023-12-20T21:35:29;7.75;;;5.35;;
57467;SDS011;43311;51.196;7.518;2023-12-20T21:37:55;7.38;;;4.65;;
57467;SDS011;43311;51.196;7.518;2023-12-20T21:40:21;5.63;;;3.88;;
57467;SDS011;43311;51.196;7.518;2023-12-20T21:42:46;6.03;;;4.38;;
57467;SDS011;43311;51.196;7.518;2023-12-20T21:47:41;7.95;;;4.82;;
57467;SDS011;43311;51.196;7.518;2023-12-20T21:52:37;7.45;;;4.45;;
57467;SDS011;43311;51.196;7.518;2023-12-20T21:55:05;6.35;;;4.00;;
57467;SDS011;43311;51.196;7.518;2023-12-20T21:57:31;6.88;;;4.05;;
57467;SDS011;43311;51.196;7.518;2023-12-20T22:00:02;5.25;;;3.75;;
57467;SDS011;43311;51.196;7.518;2023-12-20T22:02:32;6.45;;;3.65;;
57467;SDS011;43311;51.196;7.518;2023-12-20T22:05:17;7.43;;;3.00;;
57467;SDS011;43311;51.196;7.518;2023-12-20T22:07:43;3.88;;;3.03;;